Terminal Aerodrome Forecast
Issued by NWS

Home | Current Version | Previous Version | Text Only | Print | Product List | Glossary On
Versions: 1 2 3 4 5 6 7 8 9 10 11 12 13 14 15
831
FTUS43 KSGF 181831 AAA
TAFJLN
TAF AMD
KJLN 181831Z 1819/1918 21007KT P6SM VCSH BKN030 OVC200
     FM182200 21007KT P6SM VCTS SCT050CB BKN200
     FM190400 21006KT P6SM FEW200
     FM191200 20005KT 5SM BR SCT200
     FM191400 21009KT P6SM SCT050=

USA.gov is the U.S. government's official web portal to all federal, state and local government web resources and services.